createdAt,value
2023-03-23T16:02:24.124Z,12.25
2023-03-23T16:07:25.913Z,12.08
2023-03-23T16:12:27.546Z,11.49
2023-03-23T16:17:29.209Z,11.62
2023-03-23T16:22:30.849Z,11.85
2023-03-23T16:27:32.609Z,12.01
2023-03-23T16:37:35.109Z,12.19
2023-03-23T16:42:36.895Z,12.15
2023-03-23T16:47:40.334Z,12.20
2023-03-23T16:52:46.146Z,12.14
2023-03-23T16:57:48.404Z,12.07
2023-03-23T17:02:52.606Z,11.96
2023-03-23T17:07:57.696Z,11.97
2023-03-23T17:12:59.420Z,11.86
2023-03-23T17:18:01.867Z,11.73
2023-03-23T17:23:04.485Z,11.38
2023-03-23T17:28:07.137Z,11.06
2023-03-23T17:33:09.553Z,10.78
2023-03-23T17:38:11.398Z,10.63
2023-03-23T17:43:13.278Z,10.39
2023-03-23T17:48:15.131Z,10.16
2023-03-23T17:53:18.492Z,9.96
2023-03-23T17:58:20.272Z,9.70
2023-03-23T18:03:23.584Z,9.58
2023-03-23T18:08:26.165Z,9.54
2023-03-23T18:13:31.606Z,9.58
2023-03-23T18:18:33.702Z,9.77
2023-03-23T18:23:46.109Z,9.93
2023-03-23T18:28:55.812Z,10.19
2023-03-23T18:33:57.478Z,10.98
2023-03-23T18:38:59.228Z,11.72
2023-03-23T18:44:00.918Z,11.97
2023-03-23T18:49:02.596Z,12.06
2023-03-23T18:54:04.541Z,11.95
2023-03-23T18:59:06.549Z,11.89
2023-03-23T19:04:08.165Z,11.82
2023-03-23T19:09:09.812Z,11.93
2023-03-23T19:14:11.765Z,12.01
2023-03-23T19:19:14.264Z,11.91
2023-03-23T19:24:15.987Z,11.88
2023-03-23T19:29:26.698Z,11.88
2023-03-23T19:34:30.096Z,11.98
2023-03-23T19:39:33.064Z,12.09
2023-03-23T19:44:34.892Z,12.04
2023-03-23T19:49:36.660Z,11.94
2023-03-23T19:54:39.145Z,11.85
2023-03-23T19:59:41.219Z,11.81
2023-03-23T20:04:43.691Z,11.90
2023-03-23T20:09:48.421Z,11.82
2023-03-23T20:14:50.758Z,11.83
2023-03-23T20:19:52.562Z,11.79
2023-03-23T20:24:54.175Z,11.73
2023-03-23T20:29:56.079Z,11.68
2023-03-23T20:34:57.703Z,11.67
2023-03-23T20:39:59.318Z,11.65
2023-03-23T20:45:01.904Z,11.69
2023-03-23T20:50:05.306Z,11.78
2023-03-23T20:55:07.926Z,11.85
2023-03-23T21:00:16.143Z,11.85
2023-03-23T21:05:17.852Z,11.87
2023-03-23T21:10:19.620Z,11.72
2023-03-23T21:15:21.593Z,11.76
2023-03-23T21:20:24.137Z,11.76
2023-03-23T21:25:34.080Z,11.76
2023-03-23T21:30:37.359Z,11.70
2023-03-23T21:35:41.615Z,11.60
2023-03-23T21:40:44.550Z,11.47
2023-03-23T21:45:46.348Z,11.48
2023-03-23T21:50:48.586Z,11.48
2023-03-23T21:55:51.784Z,11.43
2023-03-23T22:00:54.578Z,11.42
2023-03-23T22:05:56.337Z,11.38
2023-03-23T22:11:03.614Z,11.49
2023-03-23T22:16:09.165Z,11.32
2023-03-23T22:21:12.935Z,11.26
2023-03-23T22:26:16.651Z,11.19
2023-03-23T22:31:23.825Z,11.33
2023-03-23T22:36:29.369Z,11.28
2023-03-23T22:41:37.970Z,11.40
2023-03-23T22:46:40.729Z,11.26
2023-03-23T22:51:42.548Z,11.15
2023-03-23T22:56:44.256Z,11.15
2023-03-23T23:01:46.953Z,10.98
2023-03-23T23:06:48.739Z,10.82
2023-03-23T23:11:50.582Z,10.61
2023-03-23T23:16:52.714Z,10.53
2023-03-23T23:21:55.714Z,10.45
2023-03-23T23:26:58.572Z,10.50
2023-03-23T23:32:02.148Z,10.47
2023-03-23T23:37:03.986Z,10.39
2023-03-23T23:42:05.847Z,10.23
2023-03-23T23:47:07.626Z,10.18
2023-03-23T23:52:09.426Z,10.15
2023-03-23T23:57:11.183Z,9.94
